Time;durP1;ratioP1;P1;durP2;ratioP2;P2;SDS_P1;SDS_P2;PMS_P1;PMS_P2;Temp;Humidity;BMP_temperature;BMP_pressure;BME280_temperature;BME280_humidity;BME280_pressure;Samples;Min_cycle;Max_cycle;Signal;HPM_P1;HPM_P2
2022/07/02 00:02:17;;;;;;;;;;;;;;;15.36;70.60;102163.91;5072917;28;19923;-36
2022/07/02 00:04:52;;;;;;;;;;;;;;;15.35;70.83;102167.69;5073888;28;19923;-36
2022/07/02 00:07:17;;;;;;;;;;;;;;;15.31;71.18;102169.22;5073225;28;20006;-36
2022/07/02 00:09:42;;;;;;;;;;;;;;;15.26;71.32;102163.63;5072822;28;19920;-36
2022/07/02 00:12:10;;;;;;;;;;;;;;;15.23;71.02;102172.28;5073089;28;19928;-36
2022/07/02 00:14:35;;;;;;;;;;;;;;;15.19;71.48;102170.00;5072968;28;19927;-36
2022/07/02 00:17:01;;;;;;;;;;;;;;;15.18;71.56;102162.91;5073310;28;19917;-36
2022/07/02 00:19:27;;;;;;;;;;;;;;;15.17;71.62;102160.38;5074853;28;19942;-36
2022/07/02 00:21:53;;;;;;;;;;;;;;;15.12;71.65;102163.78;5076771;28;19917;-36
2022/07/02 00:24:18;;;;;;;;;;;;;;;15.10;71.61;102170.53;5076932;28;19989;-36
2022/07/02 00:26:54;;;;;;;;;;;;;;;15.07;71.37;102166.38;5077867;28;19916;-36
2022/07/02 00:29:32;;;;;;;;;;;;;;;15.05;71.24;102165.78;5077297;28;20027;-36
2022/07/02 00:31:57;;;;;;;;;;;;;;;15.03;71.40;102164.34;5076799;28;19923;-36
2022/07/02 00:34:23;;;;;;;;;;;;;;;15.00;71.67;102171.09;5076837;28;20003;-36
2022/07/02 00:36:49;;;;;;;;;;;;;;;14.97;71.79;102160.63;5076539;28;19916;-36
2022/07/02 00:39:15;;;;;;;;;;;;;;;14.97;71.78;102171.53;5076401;28;19916;-36
2022/07/02 00:41:40;;;;;;;;;;;;;;;14.93;72.25;102164.88;5076952;28;19923;-36
2022/07/02 00:44:05;;;;;;;;;;;;;;;14.91;72.08;102172.44;5076678;28;19971;-36
2022/07/02 00:46:31;;;;;;;;;;;;;;;14.90;71.83;102170.78;5076334;28;19921;-36
2022/07/02 00:48:57;;;;;;;;;;;;;;;14.87;71.80;102168.50;5077101;28;20369;-36
2022/07/02 00:51:22;;;;;;;;;;;;;;;14.82;72.27;102168.34;5076660;28;19917;-36
2022/07/02 00:53:48;;;;;;;;;;;;;;;14.78;71.92;102158.97;5076380;28;20014;-36
2022/07/02 00:56:13;;;;;;;;;;;;;;;14.75;72.25;102156.72;5077153;28;20017;-36
2022/07/02 00:58:38;;;;;;;;;;;;;;;14.73;72.24;102164.28;5076287;28;20284;-36
2022/07/02 01:01:03;;;;;;;;;;;;;;;14.72;72.35;102157.16;5076372;28;19934;-36
2022/07/02 01:03:29;;;;;;;;;;;;;;;14.67;72.40;102157.84;5076991;28;19916;-36
2022/07/02 01:05:56;;;;;;;;;;;;;;;14.62;72.24;102158.53;5076897;28;20391;-36
2022/07/02 01:11:07;;;;;;;;;;;;;;;14.57;72.82;102152.09;5076254;28;20018;-36
2022/07/02 01:13:33;;;;;;;;;;;;;;;14.54;72.65;102156.13;5076335;28;19916;-36
2022/07/02 01:15:58;;;;;;;;;;;;;;;14.53;73.00;102154.44;5075718;28;20327;-36
2022/07/02 01:18:24;;;;;;;;;;;;;;;14.50;72.84;102154.06;5076764;28;19916;-36
2022/07/02 01:20:49;;;;;;;;;;;;;;;14.50;72.41;102148.63;5075880;28;20011;-36
2022/07/02 01:23:14;;;;;;;;;;;;;;;14.49;72.99;102147.75;5075933;28;20332;-36
2022/07/02 01:25:39;;;;;;;;;;;;;;;14.50;72.84;102159.50;5075888;28;20011;-36
2022/07/02 01:28:05;;;;;;;;;;;;;;;14.46;73.17;102153.66;5076011;28;19966;-36
2022/07/02 01:30:30;;;;;;;;;;;;;;;14.40;73.27;102152.66;5074929;28;20364;-36
2022/07/02 01:32:56;;;;;;;;;;;;;;;14.39;73.01;102152.88;5075734;28;19924;-36
2022/07/02 01:35:21;;;;;;;;;;;;;;;14.40;73.34;102158.09;5076190;28;19917;-36
2022/07/02 01:37:46;;;;;;;;;;;;;;;14.41;72.98;102158.94;5075320;28;19923;-36
2022/07/02 01:40:11;;;;;;;;;;;;;;;14.39;73.04;102153.69;5075496;28;19922;-36
2022/07/02 01:42:37;;;;;;;;;;;;;;;14.41;73.48;102161.66;5076367;28;19963;-36
2022/07/02 01:45:03;;;;;;;;;;;;;;;14.44;73.33;102163.91;5075738;28;19923;-36
2022/07/02 01:47:28;;;;;;;;;;;;;;;14.45;73.35;102160.16;5075962;28;20022;-36
2022/07/02 01:49:53;;;;;;;;;;;;;;;14.46;73.64;102169.16;5075832;28;19923;-36
2022/07/02 01:52:19;;;;;;;;;;;;;;;14.44;73.98;102161.19;5075904;28;19917;-36
2022/07/02 01:54:44;;;;;;;;;;;;;;;14.43;74.05;102162.25;5075312;28;19916;-36
2022/07/02 01:57:10;;;;;;;;;;;;;;;14.41;74.32;102158.94;5075236;28;19920;-36
2022/07/02 01:59:35;;;;;;;;;;;;;;;14.39;73.86;102158.31;5074924;28;19917;-36
2022/07/02 02:02:04;;;;;;;;;;;;;;;14.37;74.93;102155.00;5075682;28;19969;-36
2022/07/02 02:04:30;;;;;;;;;;;;;;;14.35;74.70;102152.50;5075116;28;20388;-36
2022/07/02 02:06:55;;;;;;;;;;;;;;;14.34;74.07;102152.72;5075800;28;19966;-36
2022/07/02 02:09:20;;;;;;;;;;;;;;;14.33;73.94;102148.31;5074740;28;19961;-36
2022/07/02 02:11:46;;;;;;;;;;;;;;;14.33;74.47;102151.03;5075248;28;19924;-36
2022/07/02 02:14:11;;;;;;;;;;;;;;;14.34;74.34;102150.00;5074909;28;19916;-36
2022/07/02 02:16:36;;;;;;;;;;;;;;;14.38;75.00;102146.59;5075115;28;19917;-36
2022/07/02 02:19:02;;;;;;;;;;;;;;;14.39;74.26;102150.16;5073492;28;19924;-36
2022/07/02 02:21:28;;;;;;;;;;;;;;;14.37;74.31;102146.81;5075008;28;19917;-36
2022/07/02 02:23:54;;;;;;;;;;;;;;;14.36;74.40;102142.44;5074367;28;19920;-36
2022/07/02 02:26:19;;;;;;;;;;;;;;;14.37;76.07;102146.81;5074877;28;19924;-36
2022/07/02 02:28:44;;;;;;;;;;;;;;;14.35;74.65;102151.69;5075144;28;19992;-36
2022/07/02 02:31:09;;;;;;;;;;;;;;;14.36;75.13;102154.16;5074897;28;19920;-36
2022/07/02 02:33:34;;;;;;;;;;;;;;;14.37;74.29;102153.09;5074548;28;20016;-36
2022/07/02 02:36:00;;;;;;;;;;;;;;;14.40;74.70;102157.28;5074720;28;20335;-36
2022/07/02 02:38:25;;;;;;;;;;;;;;;14.38;74.71;102151.22;5074145;28;20426;-36
2022/07/02 02:40:51;;;;;;;;;;;;;;;14.37;75.15;102157.72;5074324;28;19916;-36
2022/07/02 02:43:16;;;;;;;;;;;;;;;14.37;74.82;102144.94;5074244;28;20006;-36
2022/07/02 02:45:41;;;;;;;;;;;;;;;14.40;74.93;102151.84;5074157;28;19917;-36
2022/07/02 02:48:06;;;;;;;;;;;;;;;14.41;74.96;102153.50;5074044;28;19916;-36
2022/07/02 02:50:32;;;;;;;;;;;;;;;14.40;75.10;102146.38;5073814;28;19916;-36
2022/07/02 02:52:57;;;;;;;;;;;;;;;14.40;75.59;102151.84;5074669;28;20007;-36
2022/07/02 02:55:22;;;;;;;;;;;;;;;14.36;75.31;102156.88;5074455;28;20088;-36
2022/07/02 02:57:47;;;;;;;;;;;;;;;14.35;75.43;102160.66;5073695;28;20394;-36
2022/07/02 03:00:13;;;;;;;;;;;;;;;14.34;75.60;102161.69;5073941;28;19927;-36
2022/07/02 03:02:38;;;;;;;;;;;;;;;14.33;75.35;102162.75;5074365;28;19927;-36
2022/07/02 03:05:03;;;;;;;;;;;;;;;14.30;75.78;102165.09;5074433;28;20262;-36
2022/07/02 03:07:28;;;;;;;;;;;;;;;14.26;76.19;102164.72;5074317;28;20387;-36
2022/07/02 03:09:54;;;;;;;;;;;;;;;14.25;75.62;102173.09;5073521;28;19916;-36
2022/07/02 03:12:19;;;;;;;;;;;;;;;14.23;76.25;102162.44;5074350;28;19962;-36
2022/07/02 03:14:44;;;;;;;;;;;;;;;14.20;76.50;102164.78;5073750;28;19939;-36
2022/07/02 03:17:09;;;;;;;;;;;;;;;14.18;75.49;102163.09;5074495;28;19940;-36
2022/07/02 03:19:35;;;;;;;;;;;;;;;14.19;75.40;102158.50;5073498;28;20383;-36
2022/07/02 03:22:00;;;;;;;;;;;;;;;14.21;75.28;102166.47;5073712;28;20011;-36
2022/07/02 03:24:25;;;;;;;;;;;;;;;14.17;75.26;102174.22;5073283;28;19917;-36
2022/07/02 03:26:50;;;;;;;;;;;;;;;14.13;75.78;102182.00;5073491;28;19916;-36
2022/07/02 03:29:16;;;;;;;;;;;;;;;14.04;76.35;102177.88;5073530;28;19923;-36
2022/07/02 03:31:41;;;;;;;;;;;;;;;14.02;76.30;102185.44;5073558;28;19917;-36
2022/07/02 03:34:06;;;;;;;;;;;;;;;13.99;76.12;102185.88;5073429;28;19928;-36
2022/07/02 03:36:31;;;;;;;;;;;;;;;14.00;76.63;102192.97;5073536;28;19970;-36
2022/07/02 03:38:56;;;;;;;;;;;;;;;14.01;76.25;102194.66;5073466;28;19916;-36
2022/07/02 03:41:22;;;;;;;;;;;;;;;14.05;76.35;102198.56;5073462;28;19923;-36
2022/07/02 03:43:49;;;;;;;;;;;;;;;14.12;76.08;102193.09;5073172;28;19916;-36
2022/07/02 03:46:16;;;;;;;;;;;;;;;14.16;76.25;102199.78;5074031;28;19921;-36
2022/07/02 03:48:41;;;;;;;;;;;;;;;14.20;76.18;102191.97;5073340;28;19939;-36
2022/07/02 03:51:06;;;;;;;;;;;;;;;14.23;76.25;102191.53;5073528;28;19917;-36
2022/07/02 03:53:32;;;;;;;;;;;;;;;14.27;77.49;102181.88;5072919;28;20307;-36
2022/07/02 03:55:57;;;;;;;;;;;;;;;14.22;77.82;102174.38;5073267;28;19917;-36
2022/07/02 03:58:22;;;;;;;;;;;;;;;14.20;77.46;102178.38;5073186;28;19921;-36
2022/07/02 04:00:47;;;;;;;;;;;;;;;14.18;77.50;102190.31;5073387;28;19917;-36
2022/07/02 04:03:13;;;;;;;;;;;;;;;14.17;77.36;102194.09;5073476;28;19932;-36
2022/07/02 04:05:38;;;;;;;;;;;;;;;14.15;76.96;102196.22;5073444;28;20380;-36
2022/07/02 04:08:03;;;;;;;;;;;;;;;14.17;77.41;102193.25;5072972;28;20276;-36
2022/07/02 04:10:28;;;;;;;;;;;;;;;14.16;77.91;102197.88;5072674;28;20332;-36
2022/07/02 04:12:54;;;;;;;;;;;;;;;14.19;77.58;102193.88;5073002;28;19920;-36
2022/07/02 04:15:20;;;;;;;;;;;;;;;14.24;77.37;102201.38;5073065;28;19970;-36
2022/07/02 04:17:45;;;;;;;;;;;;;;;14.29;76.86;102190.63;5073079;28;19922;-36
2022/07/02 04:20:10;;;;;;;;;;;;;;;14.32;77.06;102195.66;5072989;28;20003;-36
2022/07/02 04:22:36;;;;;;;;;;;;;;;14.33;77.49;102194.59;5073698;28;20011;-36
2022/07/02 04:25:01;;;;;;;;;;;;;;;14.31;77.96;102197.53;5072911;28;19960;-36
2022/07/02 04:27:26;;;;;;;;;;;;;;;14.29;77.00;102190.63;5073380;28;19936;-36
2022/07/02 04:29:51;;;;;;;;;;;;;;;14.30;76.66;102195.88;5072666;28;19923;-36
2022/07/02 04:32:17;;;;;;;;;;;;;;;14.34;76.36;102193.53;5072621;28;19993;-36
2022/07/02 04:34:42;;;;;;;;;;;;;;;14.33;77.15;102197.31;5072878;28;20033;-36
2022/07/02 04:37:07;;;;;;;;;;;;;;;14.37;76.93;102202.09;5072769;28;20019;-36
2022/07/02 04:39:32;;;;;;;;;;;;;;;14.43;77.69;102203.06;5072485;28;19927;-36
2022/07/02 04:41:58;;;;;;;;;;;;;;;14.51;77.65;102205.56;5072856;28;20347;-36
2022/07/02 04:44:24;;;;;;;;;;;;;;;14.56;77.43;102205.72;5072700;28;19920;-36
2022/07/02 04:46:49;;;;;;;;;;;;;;;14.64;77.61;102199.97;5072598;28;19920;-36
2022/07/02 04:49:14;;;;;;;;;;;;;;;14.74;76.96;102194.03;5072424;28;20277;-36
2022/07/02 04:51:39;;;;;;;;;;;;;;;14.83;77.16;102203.53;5072951;28;19966;-36
2022/07/02 04:54:04;;;;;;;;;;;;;;;14.92;77.24;102198.63;5072654;28;20337;-36
2022/07/02 04:56:30;;;;;;;;;;;;;;;15.03;76.88;102197.03;5072995;28;19916;-36
2022/07/02 04:58:55;;;;;;;;;;;;;;;15.12;76.50;102198.38;5072569;28;19928;-36
2022/07/02 05:01:20;;;;;;;;;;;;;;;15.23;76.30;102197.63;5072822;28;19923;-36
2022/07/02 05:03:45;;;;;;;;;;;;;;;15.32;75.89;102198.94;5073284;28;20019;-36
2022/07/02 05:06:11;;;;;;;;;;;;;;;15.36;75.15;102196.63;5073967;28;20349;-36
2022/07/02 05:08:36;;;;;;;;;;;;;;;15.40;74.97;102193.19;5075865;28;19923;-36
2022/07/02 05:11:01;;;;;;;;;;;;;;;15.47;75.37;102193.13;5076623;28;19917;-36
2022/07/02 05:13:26;;;;;;;;;;;;;;;15.54;74.73;102198.47;5076703;28;19917;-36
2022/07/02 05:15:52;;;;;;;;;;;;;;;15.65;74.43;102201.25;5075829;28;19917;-36
2022/07/02 05:18:17;;;;;;;;;;;;;;;15.74;74.06;102201.78;5076055;28;19917;-36
2022/07/02 05:20:42;;;;;;;;;;;;;;;15.86;74.18;102188.16;5076179;28;19992;-36
2022/07/02 05:23:08;;;;;;;;;;;;;;;16.00;73.36;102197.78;5075618;28;20372;-36
2022/07/02 05:25:33;;;;;;;;;;;;;;;16.09;73.53;102190.94;5075809;28;19921;-36
2022/07/02 05:27:58;;;;;;;;;;;;;;;16.11;72.95;102198.91;5075816;28;19916;-36
2022/07/02 05:30:24;;;;;;;;;;;;;;;16.10;73.08;102191.75;5076193;28;19921;-36
2022/07/02 05:32:49;;;;;;;;;;;;;;;16.09;73.26;102190.94;5075706;28;19920;-36
2022/07/02 05:35:14;;;;;;;;;;;;;;;16.18;73.21;102194.16;5075740;28;20258;-36
2022/07/02 05:37:39;;;;;;;;;;;;;;;16.30;72.66;102196.88;5075441;28;19916;-36
2022/07/02 05:40:05;;;;;;;;;;;;;;;16.44;72.72;102203.78;5075374;28;19916;-36
2022/07/02 05:42:30;;;;;;;;;;;;;;;16.52;72.38;102199.88;5076147;28;19975;-36
2022/07/02 05:44:55;;;;;;;;;;;;;;;16.60;71.95;102200.34;5075410;28;19969;-36
2022/07/02 05:47:20;;;;;;;;;;;;;;;16.67;71.38;102206.50;5076181;28;19963;-36
2022/07/02 05:49:45;;;;;;;;;;;;;;;16.75;70.13;102204.53;5075461;28;20011;-36
2022/07/02 05:52:11;;;;;;;;;;;;;;;16.79;69.77;102208.41;5075050;28;19939;-36
2022/07/02 05:54:36;;;;;;;;;;;;;;;16.87;70.10;102205.34;5075530;28;19916;-36
2022/07/02 05:57:01;;;;;;;;;;;;;;;16.92;70.58;102205.44;5075582;28;19970;-36
2022/07/02 05:59:26;;;;;;;;;;;;;;;16.96;69.72;102207.44;5075184;28;19916;-36
2022/07/02 06:01:52;;;;;;;;;;;;;;;17.01;68.29;102204.00;5075448;28;19939;-36
2022/07/02 06:04:17;;;;;;;;;;;;;;;17.09;69.26;102216.47;5075078;28;20400;-36
2022/07/02 06:09:25;;;;;;;;;;;;;;;17.24;68.86;102211.31;5075611;28;20019;-36
2022/07/02 06:11:51;;;;;;;;;;;;;;;17.30;67.30;102209.50;5075195;28;19984;-36
2022/07/02 06:14:16;;;;;;;;;;;;;;;17.35;68.62;102207.72;5074729;28;19916;-36
2022/07/02 06:16:41;;;;;;;;;;;;;;;17.41;67.59;102209.47;5075430;28;19916;-36
2022/07/02 06:19:07;;;;;;;;;;;;;;;17.46;65.96;102211.47;5074773;28;20343;-36
2022/07/02 06:21:32;;;;;;;;;;;;;;;17.49;66.56;102211.00;5074858;28;20327;-36
2022/07/02 06:23:57;;;;;;;;;;;;;;;17.53;66.89;102201.22;5074761;28;19916;-36
2022/07/02 06:26:22;;;;;;;;;;;;;;;17.53;65.87;102209.44;5075138;28;19943;-36
2022/07/02 06:28:48;;;;;;;;;;;;;;;17.53;66.44;102205.88;5074633;28;19916;-36
2022/07/02 06:31:13;;;;;;;;;;;;;;;17.58;65.50;102214.16;5074601;28;20285;-36
2022/07/02 06:33:39;;;;;;;;;;;;;;;17.58;65.56;102220.47;5074484;28;20310;-36
2022/07/02 06:36:05;;;;;;;;;;;;;;;17.60;64.64;102218.31;5074849;28;20234;-36
2022/07/02 06:38:30;;;;;;;;;;;;;;;17.63;64.67;102230.69;5074562;28;19917;-36
2022/07/02 06:40:56;;;;;;;;;;;;;;;17.71;64.25;102227.53;5074768;28;19923;-36
2022/07/02 06:43:23;;;;;;;;;;;;;;;17.81;64.65;102227.75;5074278;28;19916;-36
2022/07/02 06:45:49;;;;;;;;;;;;;;;17.84;65.10;102223.69;5074425;28;20020;-36
2022/07/02 06:48:14;;;;;;;;;;;;;;;17.87;64.72;102220.47;5074433;28;20285;-36
2022/07/02 06:50:39;;;;;;;;;;;;;;;17.89;64.90;102229.25;5074088;28;19916;-36
2022/07/02 06:53:04;;;;;;;;;;;;;;;17.94;65.04;102221.97;5074350;28;19928;-36
2022/07/02 06:55:29;;;;;;;;;;;;;;;18.02;63.55;102228.97;5074279;28;19924;-36
2022/07/02 06:57:55;;;;;;;;;;;;;;;18.04;64.86;102218.56;5074580;28;19917;-36
2022/07/02 07:00:23;;;;;;;;;;;;;;;18.08;65.51;102214.28;5073994;28;19971;-36
2022/07/02 07:02:49;;;;;;;;;;;;;;;18.17;64.08;102212.78;5073666;28;19938;-36
2022/07/02 07:05:15;;;;;;;;;;;;;;;18.27;65.13;102218.44;5073712;28;19916;-36
2022/07/02 07:07:40;;;;;;;;;;;;;;;18.34;64.10;102218.25;5073899;28;19988;-36
2022/07/02 07:10:05;;;;;;;;;;;;;;;18.41;63.87;102218.09;5073314;28;20344;-36
2022/07/02 07:12:30;;;;;;;;;;;;;;;18.45;64.38;102211.03;5074662;28;19916;-36
2022/07/02 07:15:00;;;;;;;;;;;;;;;18.42;62.25;102212.34;5073507;28;20269;-36
2022/07/02 07:17:25;;;;;;;;;;;;;;;18.46;62.56;102204.47;5073872;28;19993;-36
2022/07/02 07:19:50;;;;;;;;;;;;;;;18.49;61.71;102220.38;5074020;28;20361;-36
2022/07/02 07:22:15;;;;;;;;;;;;;;;18.50;61.20;102216.59;5073504;28;19917;-36
2022/07/02 07:24:41;;;;;;;;;;;;;;;18.55;60.40;102222.16;5073580;28;19917;-36
2022/07/02 07:27:06;;;;;;;;;;;;;;;18.61;61.20;102223.88;5073611;28;19923;-36
2022/07/02 07:29:31;;;;;;;;;;;;;;;18.67;61.10;102227.53;5073186;28;19969;-36
